createdAt,value
2022-12-12T00:00:22.442Z,-0.70
2022-12-12T00:02:52.655Z,-0.60
2022-12-12T00:05:21.546Z,-0.70
2022-12-12T00:07:50.546Z,-0.70
2022-12-12T00:10:19.232Z,-0.80
2022-12-12T00:12:47.918Z,-0.90
2022-12-12T00:15:16.469Z,-0.90
2022-12-12T00:17:45.073Z,-0.80
2022-12-12T00:20:15.166Z,-0.80
2022-12-12T00:22:43.824Z,-1.00
2022-12-12T00:25:12.899Z,-0.90
2022-12-12T00:27:41.689Z,-0.90
2022-12-12T00:30:11.871Z,-0.80
2022-12-12T00:32:40.497Z,-0.90
2022-12-12T00:35:10.321Z,-1.00
2022-12-12T00:37:40.531Z,-1.00
2022-12-12T00:40:11.487Z,-1.00
2022-12-12T00:42:40.251Z,-1.00
2022-12-12T00:46:27.125Z,-1.00
2022-12-12T00:48:58.214Z,-1.10
2022-12-12T00:51:30.775Z,-1.20
2022-12-12T00:54:02.048Z,-1.20
2022-12-12T00:56:32.185Z,-1.20
2022-12-12T00:59:00.766Z,-1.30
2022-12-12T01:01:33.268Z,-1.20
2022-12-12T01:04:02.652Z,-1.20
2022-12-12T01:06:32.844Z,-1.20
2022-12-12T01:09:03.003Z,-1.30
2022-12-12T01:11:31.691Z,-1.30
2022-12-12T01:14:00.296Z,-1.30
2022-12-12T01:16:28.992Z,-1.40
2022-12-12T01:18:57.931Z,-1.30
2022-12-12T01:21:26.881Z,-1.30
2022-12-12T01:23:55.518Z,-1.30
2022-12-12T01:26:26.236Z,-1.30
2022-12-12T01:28:54.837Z,-1.30
2022-12-12T01:31:23.636Z,-1.30
2022-12-12T01:33:52.807Z,-1.30
2022-12-12T01:36:24.476Z,-1.20
2022-12-12T01:38:57.133Z,-1.20
2022-12-12T01:41:27.667Z,-1.10
2022-12-12T01:43:56.544Z,-1.10
2022-12-12T01:46:43.439Z,-1.00
2022-12-12T01:49:24.885Z,-1.10
2022-12-12T01:51:59.774Z,-1.00
2022-12-12T01:54:34.244Z,-1.00
2022-12-12T01:57:09.637Z,-1.00
2022-12-12T01:59:40.501Z,-1.10
2022-12-12T02:02:10.961Z,-1.10
2022-12-12T02:04:40.799Z,-0.90
2022-12-12T02:07:13.594Z,-0.90
2022-12-12T02:09:42.690Z,-0.70
2022-12-12T02:12:16.080Z,-0.70
2022-12-12T02:14:52.387Z,-0.70
2022-12-12T02:18:02.254Z,-0.80
2022-12-12T02:21:01.331Z,-0.90
2022-12-12T02:24:06.950Z,-0.90
2022-12-12T02:27:17.583Z,-0.90
2022-12-12T02:30:23.340Z,-1.00
2022-12-12T02:33:12.030Z,-1.00
2022-12-12T02:36:00.511Z,-1.10
2022-12-12T02:38:42.172Z,-1.00
2022-12-12T02:41:23.893Z,-1.00
2022-12-12T02:44:08.358Z,-1.00
2022-12-12T02:46:47.438Z,-1.00
2022-12-12T02:49:26.705Z,-1.00
2022-12-12T02:51:58.503Z,-0.90
2022-12-12T02:54:27.435Z,-0.80
2022-12-12T02:56:58.877Z,-0.80
2022-12-12T02:59:32.978Z,-0.80
2022-12-12T03:02:47.271Z,-0.90
